sensor_id;sensor_type;location;lat;lon;timestamp;pressure;altitude;pressure_sealevel;temperature;humidity
13015;BME280;6573;57.696;11.950;2024-02-26T07:57:31;100655.16;;;7.90;100.00
13015;BME280;6573;57.696;11.950;2024-02-26T08:00:01;100751.59;;;8.54;100.00
13015;BME280;6573;57.696;11.950;2024-02-26T08:02:30;100814.75;;;9.11;100.00
13015;BME280;6573;57.696;11.950;2024-02-26T08:05:00;100783.16;;;8.75;100.00
13015;BME280;6573;57.696;11.950;2024-02-26T08:07:29;100791.91;;;8.80;100.00
13015;BME280;6573;57.696;11.950;2024-02-26T08:09:57;100819.94;;;8.90;100.00
13015;BME280;6573;57.696;11.950;2024-02-26T08:12:26;100832.16;;;8.91;100.00
13015;BME280;6573;57.696;11.950;2024-02-26T08:14:56;100823.44;;;8.98;100.00
13015;BME280;6573;57.696;11.950;2024-02-26T08:17:25;100807.69;;;8.92;100.00
13015;BME280;6573;57.696;11.950;2024-02-26T08:19:54;100826.13;;;9.13;100.00
13015;BME280;6573;57.696;11.950;2024-02-26T08:22:23;100788.41;;;8.81;100.00
13015;BME280;6573;57.696;11.950;2024-02-26T08:24:51;100834.84;;;9.03;100.00
13015;BME280;6573;57.696;11.950;2024-02-26T08:27:20;100826.94;;;8.94;100.00
13015;BME280;6573;57.696;11.950;2024-02-26T08:29:51;100811.19;;;8.94;100.00
13015;BME280;6573;57.696;11.950;2024-02-26T08:32:21;100819.97;;;9.02;100.00
13015;BME280;6573;57.696;11.950;2024-02-26T08:34:50;100849.75;;;9.12;100.00
13015;BME280;6573;57.696;11.950;2024-02-26T08:37:18;100853.25;;;9.14;100.00
13015;BME280;6573;57.696;11.950;2024-02-26T08:39:47;100855.91;;;9.20;100.00
13015;BME280;6573;57.696;11.950;2024-02-26T08:42:16;100855.03;;;9.26;100.00
13015;BME280;6573;57.696;11.950;2024-02-26T08:44:44;100862.94;;;9.36;100.00
13015;BME280;6573;57.696;11.950;2024-02-26T08:47:13;100851.53;;;9.27;100.00
13015;BME280;6573;57.696;11.950;2024-02-26T08:49:44;100869.09;;;9.46;100.00
13015;BME280;6573;57.696;11.950;2024-02-26T08:52:14;100855.03;;;9.23;100.00
13015;BME280;6573;57.696;11.950;2024-02-26T08:54:44;100825.16;;;8.93;100.00
13015;BME280;6573;57.696;11.950;2024-02-26T08:57:12;100874.31;;;9.43;100.00
13015;BME280;6573;57.696;11.950;2024-02-26T08:59:41;100823.53;;;9.23;100.00
13015;BME280;6573;57.696;11.950;2024-02-26T09:02:10;100881.38;;;9.50;100.00
13015;BME280;6573;57.696;11.950;2024-02-26T09:04:38;100837.59;;;9.49;100.00
13015;BME280;6573;57.696;11.950;2024-02-26T09:07:08;100796.41;;;9.24;100.00
13015;BME280;6573;57.696;11.950;2024-02-26T09:09:36;100867.38;;;9.70;100.00
13015;BME280;6573;57.696;11.950;2024-02-26T09:12:06;100883.16;;;9.81;100.00
13015;BME280;6573;57.696;11.950;2024-02-26T09:14:35;100875.31;;;9.96;100.00
13015;BME280;6573;57.696;11.950;2024-02-26T09:17:03;100886.69;;;9.95;100.00
13015;BME280;6573;57.696;11.950;2024-02-26T09:19:33;100888.44;;;10.02;100.00
13015;BME280;6573;57.696;11.950;2024-02-26T09:22:01;100889.31;;;9.82;100.00
13015;BME280;6573;57.696;11.950;2024-02-26T09:24:31;100855.97;;;9.44;100.00
13015;BME280;6573;57.696;11.950;2024-02-26T09:26:59;100850.72;;;9.49;100.00
13015;BME280;6573;57.696;11.950;2024-02-26T09:29:28;100894.53;;;9.68;100.00
13015;BME280;6573;57.696;11.950;2024-02-26T09:31:56;100884.00;;;9.54;100.00
13015;BME280;6573;57.696;11.950;2024-02-26T09:34:25;100907.69;;;9.74;100.00
13015;BME280;6573;57.696;11.950;2024-02-26T09:36:54;100905.03;;;9.72;100.00
13015;BME280;6573;57.696;11.950;2024-02-26T09:39:35;100870.84;;;9.53;100.00
13015;BME280;6573;57.696;11.950;2024-02-26T09:42:05;100895.44;;;9.82;100.00
13015;BME280;6573;57.696;11.950;2024-02-26T09:44:40;100916.47;;;9.88;100.00
13015;BME280;6573;57.696;11.950;2024-02-26T09:47:11;100914.75;;;10.69;100.00
13015;BME280;6573;57.696;11.950;2024-02-26T09:49:40;100914.66;;;10.99;100.00
13015;BME280;6573;57.696;11.950;2024-02-26T09:52:09;100923.53;;;10.47;100.00
13015;BME280;6573;57.696;11.950;2024-02-26T09:54:39;100913.00;;;10.13;100.00
13015;BME280;6573;57.696;11.950;2024-02-26T09:57:09;100927.88;;;10.11;100.00
13015;BME280;6573;57.696;11.950;2024-02-26T09:59:43;100911.25;;;10.30;100.00
13015;BME280;6573;57.696;11.950;2024-02-26T10:02:13;100923.53;;;10.56;100.00
13015;BME280;6573;57.696;11.950;2024-02-26T10:04:42;100895.47;;;10.30;100.00
13015;BME280;6573;57.696;11.950;2024-02-26T10:07:17;100936.69;;;10.54;100.00
13015;BME280;6573;57.696;11.950;2024-02-26T10:09:47;100885.00;;;10.24;100.00
13015;BME280;6573;57.696;11.950;2024-02-26T10:12:16;100935.78;;;10.48;100.00
13015;BME280;6573;57.696;11.950;2024-02-26T10:14:46;100882.31;;;10.03;100.00
13015;BME280;6573;57.696;11.950;2024-02-26T10:17:15;100942.81;;;10.36;100.00
13015;BME280;6573;57.696;11.950;2024-02-26T10:19:43;100947.19;;;10.33;100.00
13015;BME280;6573;57.696;11.950;2024-02-26T10:22:12;100883.19;;;9.84;100.00
13015;BME280;6573;57.696;11.950;2024-02-26T10:24:40;100941.00;;;10.08;100.00
13015;BME280;6573;57.696;11.950;2024-02-26T10:27:10;100955.06;;;10.34;100.00
13015;BME280;6573;57.696;11.950;2024-02-26T10:29:39;100954.19;;;10.37;100.00
13015;BME280;6573;57.696;11.950;2024-02-26T10:32:10;100944.56;;;10.37;100.00
13015;BME280;6573;57.696;11.950;2024-02-26T10:34:40;100951.59;;;10.54;100.00
13015;BME280;6573;57.696;11.950;2024-02-26T10:37:09;100895.50;;;10.24;100.00
13015;BME280;6573;57.696;11.950;2024-02-26T10:39:38;100956.81;;;10.67;100.00
13015;BME280;6573;57.696;11.950;2024-02-26T10:42:13;100944.56;;;10.62;100.00
13015;BME280;6573;57.696;11.950;2024-02-26T10:44:44;100955.06;;;10.83;100.00
13015;BME280;6573;57.696;11.950;2024-02-26T10:47:16;100955.94;;;10.79;100.00
13015;BME280;6573;57.696;11.950;2024-02-26T10:49:47;100965.59;;;10.83;100.00
13015;BME280;6573;57.696;11.950;2024-02-26T10:52:18;100956.84;;;10.63;100.00
13015;BME280;6573;57.696;11.950;2024-02-26T10:54:48;100971.72;;;10.65;100.00
13015;BME280;6573;57.696;11.950;2024-02-26T10:57:20;100941.06;;;10.38;100.00
13015;BME280;6573;57.696;11.950;2024-02-26T10:59:51;100977.91;;;10.57;100.00
13015;BME280;6573;57.696;11.950;2024-02-26T11:02:20;100969.09;;;10.55;100.00
13015;BME280;6573;57.696;11.950;2024-02-26T11:04:49;100970.88;;;10.48;100.00
13015;BME280;6573;57.696;11.950;2024-02-26T11:07:18;100980.53;;;10.54;100.00
13015;BME280;6573;57.696;11.950;2024-02-26T11:09:47;100984.88;;;10.55;100.00
13015;BME280;6573;57.696;11.950;2024-02-26T11:12:20;100986.66;;;10.40;100.00
13015;BME280;6573;57.696;11.950;2024-02-26T11:14:51;100991.91;;;10.37;100.00
13015;BME280;6573;57.696;11.950;2024-02-26T11:17:22;100974.38;;;10.21;100.00
13015;BME280;6573;57.696;11.950;2024-02-26T11:19:55;100974.38;;;10.24;100.00
13015;BME280;6573;57.696;11.950;2024-02-26T11:22:25;100941.91;;;10.04;100.00
13015;BME280;6573;57.696;11.950;2024-02-26T11:24:55;100994.53;;;10.27;100.00
13015;BME280;6573;57.696;11.950;2024-02-26T11:27:30;100998.91;;;10.29;100.00
13015;BME280;6573;57.696;11.950;2024-02-26T11:30:02;100930.47;;;9.84;100.00
13015;BME280;6573;57.696;11.950;2024-02-26T11:32:32;101005.88;;;10.09;100.00
13015;BME280;6573;57.696;11.950;2024-02-26T11:35:04;100949.72;;;9.77;100.00
13015;BME280;6573;57.696;11.950;2024-02-26T11:37:34;101008.47;;;10.02;100.00
13015;BME280;6573;57.696;11.950;2024-02-26T11:40:10;101010.22;;;10.01;100.00
13015;BME280;6573;57.696;11.950;2024-02-26T11:42:45;100977.75;;;9.81;100.00
13015;BME280;6573;57.696;11.950;2024-02-26T11:45:48;101002.34;;;10.04;100.00
13015;BME280;6573;57.696;11.950;2024-02-26T11:48:23;101009.31;;;9.93;100.00
13015;BME280;6573;57.696;11.950;2024-02-26T11:50:53;101005.81;;;9.94;100.00
13015;BME280;6573;57.696;11.950;2024-02-26T11:53:23;101014.56;;;9.87;100.00
13015;BME280;6573;57.696;11.950;2024-02-26T11:56:23;101019.78;;;9.81;100.00
13015;BME280;6573;57.696;11.950;2024-02-26T11:59:00;100976.81;;;9.70;100.00
13015;BME280;6573;57.696;11.950;2024-02-26T12:01:40;100990.00;;;9.76;100.00
13015;BME280;6573;57.696;11.950;2024-02-26T12:04:11;101030.28;;;9.81;100.00
13015;BME280;6573;57.696;11.950;2024-02-26T12:06:46;101007.47;;;9.62;100.00
13015;BME280;6573;57.696;11.950;2024-02-26T12:09:30;101026.72;;;9.61;100.00
13015;BME280;6573;57.696;11.950;2024-02-26T12:12:00;101026.78;;;9.79;100.00
13015;BME280;6573;57.696;11.950;2024-02-26T12:14:33;101039.94;;;9.82;100.00
13015;BME280;6573;57.696;11.950;2024-02-26T12:17:03;101026.72;;;9.70;100.00
13015;BME280;6573;57.696;11.950;2024-02-26T12:19:35;101025.84;;;9.63;100.00
13015;BME280;6573;57.696;11.950;2024-02-26T12:22:12;101035.47;;;9.60;100.00
13015;BME280;6573;57.696;11.950;2024-02-26T12:24:41;101038.19;;;9.80;100.00
13015;BME280;6573;57.696;11.950;2024-02-26T12:27:10;101041.59;;;9.63;100.00
13015;BME280;6573;57.696;11.950;2024-02-26T12:29:40;100997.78;;;9.47;100.00
13015;BME280;6573;57.696;11.950;2024-02-26T12:32:08;100983.78;;;9.50;100.00
13015;BME280;6573;57.696;11.950;2024-02-26T12:34:38;101051.34;;;9.84;100.00
13015;BME280;6573;57.696;11.950;2024-02-26T12:37:06;101040.81;;;9.81;100.00
13015;BME280;6573;57.696;11.950;2024-02-26T12:39:38;101060.03;;;9.74;100.00
13015;BME280;6573;57.696;11.950;2024-02-26T12:42:05;101060.03;;;9.74;100.00
13015;BME280;6573;57.696;11.950;2024-02-26T12:44:34;101039.78;;;9.50;100.00
13015;BME280;6573;57.696;11.950;2024-02-26T12:47:04;101031.88;;;9.46;100.00
13015;BME280;6573;57.696;11.950;2024-02-26T12:49:33;101012.56;;;9.32;100.00
13015;BME280;6573;57.696;11.950;2024-02-26T12:52:02;101066.06;;;9.52;100.00
13015;BME280;6573;57.696;11.950;2024-02-26T12:54:30;101031.78;;;9.25;100.00
13015;BME280;6573;57.696;11.950;2024-02-26T12:57:01;101078.34;;;9.59;100.00
13015;BME280;6573;57.696;11.950;2024-02-26T12:59:32;101071.34;;;9.56;100.00
13015;BME280;6573;57.696;11.950;2024-02-26T13:02:01;101088.81;;;9.51;100.00
13015;BME280;6573;57.696;11.950;2024-02-26T13:04:35;101093.19;;;9.51;100.00
13015;BME280;6573;57.696;11.950;2024-02-26T13:07:04;101102.06;;;9.74;100.00
13015;BME280;6573;57.696;11.950;2024-02-26T13:09:33;101082.75;;;9.63;100.00
13015;BME280;6573;57.696;11.950;2024-02-26T13:12:04;101089.88;;;9.82;100.00
13015;BME280;6573;57.696;11.950;2024-02-26T13:14:33;101048.47;;;9.40;100.00
13015;BME280;6573;57.696;11.950;2024-02-26T13:17:02;101095.13;;;9.82;100.00
13015;BME280;6573;57.696;11.950;2024-02-26T13:19:31;101100.38;;;9.82;100.00
13015;BME280;6573;57.696;11.950;2024-02-26T13:22:05;101102.09;;;9.83;100.00
13015;BME280;6573;57.696;11.950;2024-02-26T13:24:34;101068.56;;;9.28;100.00
13015;BME280;6573;57.696;11.950;2024-02-26T13:27:03;101110.78;;;9.64;100.00
13015;BME280;6573;57.696;11.950;2024-02-26T13:29:34;101112.53;;;9.65;100.00
13015;BME280;6573;57.696;11.950;2024-02-26T13:32:03;101089.63;;;9.40;100.00
13015;BME280;6573;57.696;11.950;2024-02-26T13:34:33;101098.41;;;9.48;100.00
13015;BME280;6573;57.696;11.950;2024-02-26T13:37:02;101046.53;;;9.09;100.00
13015;BME280;6573;57.696;11.950;2024-02-26T13:39:37;101110.63;;;9.40;100.00
13015;BME280;6573;57.696;11.950;2024-02-26T13:42:08;101131.75;;;9.58;100.00
13015;BME280;6573;57.696;11.950;2024-02-26T13:44:38;101136.97;;;9.52;100.00
13015;BME280;6573;57.696;11.950;2024-02-26T13:47:08;101145.69;;;9.51;100.00
13015;BME280;6573;57.696;11.950;2024-02-26T13:49:36;101132.56;;;9.49;100.00
13015;BME280;6573;57.696;11.950;2024-02-26T13:52:05;101068.31;;;8.94;100.00
13015;BME280;6573;57.696;11.950;2024-02-26T13:54:35;101149.06;;;9.32;100.00
13015;BME280;6573;57.696;11.950;2024-02-26T13:57:05;101150.94;;;9.45;100.00
13015;BME280;6573;57.696;11.950;2024-02-26T13:59:35;101142.13;;;9.43;100.00
13015;BME280;6573;57.696;11.950;2024-02-26T14:02:04;101150.97;;;9.51;100.00
13015;BME280;6573;57.696;11.950;2024-02-26T14:04:33;101158.69;;;9.30;100.00
13015;BME280;6573;57.696;11.950;2024-02-26T14:07:02;101147.22;;;9.19;100.00
13015;BME280;6573;57.696;11.950;2024-02-26T14:09:31;101169.97;;;9.20;100.00
13015;BME280;6573;57.696;11.950;2024-02-26T14:12:16;101170.09;;;9.38;100.00
13015;BME280;6573;57.696;11.950;2024-02-26T14:14:48;101114.72;;;9.00;100.00
13015;BME280;6573;57.696;11.950;2024-02-26T14:17:17;101178.00;;;9.39;100.00
13015;BME280;6573;57.696;11.950;2024-02-26T14:19:45;101166.59;;;9.33;100.00
13015;BME280;6573;57.696;11.950;2024-02-26T14:22:15;101181.47;;;9.32;100.00
13015;BME280;6573;57.696;11.950;2024-02-26T14:24:43;101176.97;;;9.18;100.00
13015;BME280;6573;57.696;11.950;2024-02-26T14:27:13;101187.56;;;9.30;100.00
13015;BME280;6573;57.696;11.950;2024-02-26T14:29:44;101192.69;;;9.15;100.00
13015;BME280;6573;57.696;11.950;2024-02-26T14:32:13;101201.34;;;9.03;100.00
13015;BME280;6573;57.696;11.950;2024-02-26T14:34:41;101201.25;;;8.98;100.00
13015;BME280;6573;57.696;11.950;2024-02-26T14:37:10;101189.25;;;9.22;100.00
13015;BME280;6573;57.696;11.950;2024-02-26T14:39:38;101199.09;;;9.48;100.00
13015;BME280;6573;57.696;11.950;2024-02-26T14:42:07;101212.16;;;9.41;100.00
13015;BME280;6573;57.696;11.950;2024-02-26T14:44:36;101185.69;;;9.17;100.00
13015;BME280;6573;57.696;11.950;2024-02-26T14:47:06;101219.00;;;9.24;100.00
13015;BME280;6573;57.696;11.950;2024-02-26T14:49:34;101190.84;;;9.04;100.00
13015;BME280;6573;57.696;11.950;2024-02-26T14:52:03;101207.47;;;9.06;100.00
13015;BME280;6573;57.696;11.950;2024-02-26T14:54:34;101219.84;;;9.21;100.00
13015;BME280;6573;57.696;11.950;2024-02-26T14:57:05;101140.63;;;8.65;100.00
13015;BME280;6573;57.696;11.950;2024-02-26T14:59:34;101223.38;;;9.20;100.00
13015;BME280;6573;57.696;11.950;2024-02-26T15:02:06;101238.06;;;9.04;100.00
13015;BME280;6573;57.696;11.950;2024-02-26T15:04:36;101208.03;;;8.75;100.00
13015;BME280;6573;57.696;11.950;2024-02-26T15:07:05;101234.28;;;8.78;100.00
13015;BME280;6573;57.696;11.950;2024-02-26T15:09:40;101242.31;;;8.90;100.00
13015;BME280;6573;57.696;11.950;2024-02-26T15:12:08;101246.63;;;8.88;100.00
13015;BME280;6573;57.696;11.950;2024-02-26T15:14:37;101212.84;;;8.37;100.00
13015;BME280;6573;57.696;11.950;2024-02-26T15:17:08;101257.69;;;8.62;100.00
13015;BME280;6573;57.696;11.950;2024-02-26T15:19:40;101239.16;;;8.45;100.00
13015;BME280;6573;57.696;11.950;2024-02-26T15:22:08;101245.22;;;8.42;100.00
13015;BME280;6573;57.696;11.950;2024-02-26T15:24:38;101268.88;;;8.47;100.00
13015;BME280;6573;57.696;11.950;2024-02-26T15:27:07;101265.28;;;8.39;100.00
13015;BME280;6573;57.696;11.950;2024-02-26T15:29:38;101277.41;;;8.31;100.00
13015;BME280;6573;57.696;11.950;2024-02-26T15:32:08;101272.13;;;8.28;100.00
13015;BME280;6573;57.696;11.950;2024-02-26T15:34:36;101286.13;;;8.30;100.00
13015;BME280;6573;57.696;11.950;2024-02-26T15:37:06;101261.34;;;8.10;100.00
13015;BME280;6573;57.696;11.950;2024-02-26T15:39:39;101273.59;;;8.11;100.00
13015;BME280;6573;57.696;11.950;2024-02-26T15:42:07;101287.66;;;8.16;100.00
13015;BME280;6573;57.696;11.950;2024-02-26T15:44:37;101314.06;;;8.28;100.00
13015;BME280;6573;57.696;11.950;2024-02-26T15:47:07;101313.09;;;8.23;100.00
13015;BME280;6573;57.696;11.950;2024-02-26T15:49:36;101324.50;;;8.26;100.00
13015;BME280;6573;57.696;11.950;2024-02-26T15:52:05;101240.88;;;7.84;100.00
13015;BME280;6573;57.696;11.950;2024-02-26T15:54:38;101265.41;;;7.88;100.00
13015;BME280;6573;57.696;11.950;2024-02-26T15:57:11;101331.19;;;8.08;100.00
13015;BME280;6573;57.696;11.950;2024-02-26T15:59:40;101329.72;;;7.72;100.00
13015;BME280;6573;57.696;11.950;2024-02-26T16:02:11;101358.88;;;7.91;100.00
13015;BME280;6573;57.696;11.950;2024-02-26T16:04:40;101305.97;;;7.60;100.00
13015;BME280;6573;57.696;11.950;2024-02-26T16:07:17;101358.03;;;7.95;100.00
13015;BME280;6573;57.696;11.950;2024-02-26T16:09:50;101357.25;;;7.99;100.00
13015;BME280;6573;57.696;11.950;2024-02-26T16:12:26;101293.16;;;7.77;100.00
13015;BME280;6573;57.696;11.950;2024-02-26T16:14:58;101352.03;;;8.02;100.00
13015;BME280;6573;57.696;11.950;2024-02-26T16:17:31;101332.47;;;7.78;100.00
13015;BME280;6573;57.696;11.950;2024-02-26T16:20:04;101364.44;;;8.12;100.00
13015;BME280;6573;57.696;11.950;2024-02-26T16:22:34;101325.66;;;7.90;100.00
13015;BME280;6573;57.696;11.950;2024-02-26T16:25:03;101346.91;;;8.08;100.00
13015;BME280;6573;57.696;11.950;2024-02-26T16:27:37;101338.38;;;8.21;100.00
13015;BME280;6573;57.696;11.950;2024-02-26T16:30:08;101356.06;;;8.31;100.00
13015;BME280;6573;57.696;11.950;2024-02-26T16:32:41;101350.66;;;8.25;100.00
13015;BME280;6573;57.696;11.950;2024-02-26T16:35:14;101361.88;;;8.15;100.00
13015;BME280;6573;57.696;11.950;2024-02-26T16:37:43;101390.81;;;8.24;100.00
13015;BME280;6573;57.696;11.950;2024-02-26T16:40:17;101392.81;;;8.37;100.00
13015;BME280;6573;57.696;11.950;2024-02-26T16:42:48;101334.81;;;8.16;100.00
13015;BME280;6573;57.696;11.950;2024-02-26T16:45:18;101351.72;;;8.34;100.00
13015;BME280;6573;57.696;11.950;2024-02-26T16:47:49;101357.63;;;8.23;100.00
13015;BME280;6573;57.696;11.950;2024-02-26T16:50:19;101386.03;;;8.51;100.00
13015;BME280;6573;57.696;11.950;2024-02-26T16:52:48;101368.56;;;8.50;100.00
13015;BME280;6573;57.696;11.950;2024-02-26T16:55:19;101343.47;;;8.12;100.00
13015;BME280;6573;57.696;11.950;2024-02-26T16:57:48;101377.66;;;8.19;100.00
13015;BME280;6573;57.696;11.950;2024-02-26T17:00:18;101413.09;;;8.48;100.00
13015;BME280;6573;57.696;11.950;2024-02-26T17:02:56;101358.31;;;8.11;100.00
13015;BME280;6573;57.696;11.950;2024-02-26T17:05:28;101349.28;;;7.94;100.00
13015;BME280;6573;57.696;11.950;2024-02-26T17:07:56;101436.63;;;8.44;100.00
13015;BME280;6573;57.696;11.950;2024-02-26T17:10:25;101357.38;;;8.08;100.00
13015;BME280;6573;57.696;11.950;2024-02-26T17:12:55;101438.41;;;8.46;100.00
13015;BME280;6573;57.696;11.950;2024-02-26T17:15:24;101438.34;;;8.42;100.00
13015;BME280;6573;57.696;11.950;2024-02-26T17:17:55;101426.44;;;8.62;100.00
13015;BME280;6573;57.696;11.950;2024-02-26T17:20:26;101419.44;;;8.64;100.00
13015;BME280;6573;57.696;11.950;2024-02-26T17:22:56;101428.03;;;8.54;100.00
13015;BME280;6573;57.696;11.950;2024-02-26T17:25:24;101398.13;;;8.40;100.00
13015;BME280;6573;57.696;11.950;2024-02-26T17:27:53;101394.38;;;8.26;100.00
13015;BME280;6573;57.696;11.950;2024-02-26T17:30:21;101440.31;;;8.55;100.00
13015;BME280;6573;57.696;11.950;2024-02-26T17:32:50;101447.16;;;8.47;100.00
13015;BME280;6573;57.696;11.950;2024-02-26T17:35:20;101418.69;;;8.19;100.00
13015;BME280;6573;57.696;11.950;2024-02-26T17:37:50;101420.41;;;8.17;100.00
13015;BME280;6573;57.696;11.950;2024-02-26T17:40:19;101432.75;;;8.21;100.00
13015;BME280;6573;57.696;11.950;2024-02-26T17:42:47;101443.34;;;8.27;100.00
13015;BME280;6573;57.696;11.950;2024-02-26T17:45:16;101391.25;;;7.96;100.00
13015;BME280;6573;57.696;11.950;2024-02-26T17:47:45;101468.03;;;8.41;100.00
13015;BME280;6573;57.696;11.950;2024-02-26T17:50:14;101460.75;;;8.25;100.00
13015;BME280;6573;57.696;11.950;2024-02-26T17:52:46;101462.25;;;8.11;100.00
13015;BME280;6573;57.696;11.950;2024-02-26T17:55:16;101429.59;;;7.92;100.00
13015;BME280;6573;57.696;11.950;2024-02-26T17:57:47;101430.34;;;7.83;100.00
13015;BME280;6573;57.696;11.950;2024-02-26T18:00:17;101463.94;;;8.09;100.00
13015;BME280;6573;57.696;11.950;2024-02-26T18:02:48;101480.81;;;8.24;100.00
13015;BME280;6573;57.696;11.950;2024-02-26T18:05:19;101406.84;;;7.88;100.00
13015;BME280;6573;57.696;11.950;2024-02-26T18:07:52;101476.63;;;8.31;100.00
13015;BME280;6573;57.696;11.950;2024-02-26T18:10:22;101435.94;;;8.05;100.00
13015;BME280;6573;57.696;11.950;2024-02-26T18:13:14;101481.91;;;8.34;100.00
13015;BME280;6573;57.696;11.950;2024-02-26T18:15:43;101479.38;;;8.40;100.00
13015;BME280;6573;57.696;11.950;2024-02-26T18:18:15;101487.19;;;8.37;100.00
13015;BME280;6573;57.696;11.950;2024-02-26T18:20:48;101424.41;;;7.94;100.00
13015;BME280;6573;57.696;11.950;2024-02-26T18:23:27;101409.19;;;7.74;100.00
13015;BME280;6573;57.696;11.950;2024-02-26T18:25:58;101374.09;;;7.63;100.00
13015;BME280;6573;57.696;11.950;2024-02-26T18:28:28;101490.41;;;8.21;100.00
13015;BME280;6573;57.696;11.950;2024-02-26T18:31:16;101495.66;;;8.22;100.00
13015;BME280;6573;57.696;11.950;2024-02-26T18:33:45;101433.09;;;7.93;100.00
13015;BME280;6573;57.696;11.950;2024-02-26T18:36:15;101474.59;;;8.18;100.00
13015;BME280;6573;57.696;11.950;2024-02-26T18:38:52;101474.50;;;8.12;100.00
13015;BME280;6573;57.696;11.950;2024-02-26T18:41:23;101440.53;;;7.70;100.00
13015;BME280;6573;57.696;11.950;2024-02-26T18:44:01;101502.31;;;8.04;100.00
13015;BME280;6573;57.696;11.950;2024-02-26T18:46:30;101454.59;;;7.73;100.00
13015;BME280;6573;57.696;11.950;2024-02-26T18:49:00;101440.63;;;7.74;100.00
13015;BME280;6573;57.696;11.950;2024-02-26T18:51:29;101400.22;;;7.60;100.00
13015;BME280;6573;57.696;11.950;2024-02-26T18:54:01;101510.53;;;8.23;100.00
13015;BME280;6573;57.696;11.950;2024-02-26T18:56:32;101473.84;;;7.75;100.00
13015;BME280;6573;57.696;11.950;2024-02-26T18:59:02;101496.44;;;7.70;100.00
13015;BME280;6573;57.696;11.950;2024-02-26T19:01:32;101529.97;;;7.90;100.00
13015;BME280;6573;57.696;11.950;2024-02-26T19:04:01;101533.56;;;7.95;100.00
13015;BME280;6573;57.696;11.950;2024-02-26T19:06:30;101542.22;;;7.91;100.00
13015;BME280;6573;57.696;11.950;2024-02-26T19:09:05;101429.16;;;7.23;100.00
13015;BME280;6573;57.696;11.950;2024-02-26T19:11:35;101467.31;;;7.54;100.00
13015;BME280;6573;57.696;11.950;2024-02-26T19:14:04;101544.09;;;7.98;100.00
13015;BME280;6573;57.696;11.950;2024-02-26T19:16:35;101466.47;;;7.56;100.00
13015;BME280;6573;57.696;11.950;2024-02-26T19:19:08;101544.63;;;8.25;100.00
13015;BME280;6573;57.696;11.950;2024-02-26T19:21:38;101528.75;;;8.17;100.00
13015;BME280;6573;57.696;11.950;2024-02-26T19:24:08;101528.75;;;8.16;100.00
13015;BME280;6573;57.696;11.950;2024-02-26T19:26:40;101522.63;;;7.70;100.00
13015;BME280;6573;57.696;11.950;2024-02-26T19:29:10;101556.31;;;7.96;100.00
13015;BME280;6573;57.696;11.950;2024-02-26T19:31:38;101459.41;;;7.52;100.00
13015;BME280;6573;57.696;11.950;2024-02-26T19:34:08;101483.84;;;7.53;100.00
13015;BME280;6573;57.696;11.950;2024-02-26T19:36:44;101559.59;;;7.86;100.00
13015;BME280;6573;57.696;11.950;2024-02-26T19:39:14;101518.78;;;7.53;100.00
13015;BME280;6573;57.696;11.950;2024-02-26T19:41:43;101468.38;;;7.22;100.00
13015;BME280;6573;57.696;11.950;2024-02-26T19:44:12;101551.66;;;7.81;100.00
13015;BME280;6573;57.696;11.950;2024-02-26T19:46:52;101563.41;;;8.03;100.00
13015;BME280;6573;57.696;11.950;2024-02-26T19:49:21;101554.22;;;7.79;100.00
13015;BME280;6573;57.696;11.950;2024-02-26T19:51:51;101552.56;;;7.83;100.00
13015;BME280;6573;57.696;11.950;2024-02-26T19:54:21;101554.53;;;7.95;100.00
13015;BME280;6573;57.696;11.950;2024-02-26T19:56:49;101553.19;;;7.71;100.00
13015;BME280;6573;57.696;11.950;2024-02-26T19:59:20;101552.25;;;7.69;100.00
13015;BME280;6573;57.696;11.950;2024-02-26T20:01:50;101532.78;;;7.55;100.00
13015;BME280;6573;57.696;11.950;2024-02-26T20:04:19;101432.31;;;7.07;100.00
13015;BME280;6573;57.696;11.950;2024-02-26T20:06:55;101517.69;;;7.44;100.00
13015;BME280;6573;57.696;11.950;2024-02-26T20:09:25;101580.63;;;7.89;100.00
13015;BME280;6573;57.696;11.950;2024-02-26T20:11:57;101586.25;;;8.10;100.00
13015;BME280;6573;57.696;11.950;2024-02-26T20:14:31;101510.34;;;7.68;100.00
13015;BME280;6573;57.696;11.950;2024-02-26T20:17:02;101591.81;;;8.25;100.00
13015;BME280;6573;57.696;11.950;2024-02-26T20:19:34;101583.03;;;8.23;100.00
13015;BME280;6573;57.696;11.950;2024-02-26T20:22:05;101590.50;;;8.03;100.00
13015;BME280;6573;57.696;11.950;2024-02-26T20:24:37;101608.19;;;8.15;100.00
13015;BME280;6573;57.696;11.950;2024-02-26T20:27:06;101605.41;;;8.06;100.00
13015;BME280;6573;57.696;11.950;2024-02-26T20:29:37;101572.91;;;7.96;100.00
13015;BME280;6573;57.696;11.950;2024-02-26T20:32:06;101582.00;;;7.71;100.00
13015;BME280;6573;57.696;11.950;2024-02-26T20:34:35;101478.72;;;7.17;100.00
13015;BME280;6573;57.696;11.950;2024-02-26T20:37:11;101514.84;;;7.33;100.00
13015;BME280;6573;57.696;11.950;2024-02-26T20:39:42;101618.03;;;7.83;100.00
13015;BME280;6573;57.696;11.950;2024-02-26T20:42:13;101608.38;;;7.80;100.00
13015;BME280;6573;57.696;11.950;2024-02-26T20:44:45;101594.28;;;7.74;100.00
13015;BME280;6573;57.696;11.950;2024-02-26T20:47:20;101564.81;;;7.86;100.00
13015;BME280;6573;57.696;11.950;2024-02-26T20:49:49;101626.31;;;8.03;100.00
13015;BME280;6573;57.696;11.950;2024-02-26T20:52:21;101623.00;;;8.13;100.00
13015;BME280;6573;57.696;11.950;2024-02-26T20:54:51;101624.28;;;7.90;100.00
13015;BME280;6573;57.696;11.950;2024-02-26T20:57:20;101619.91;;;7.89;100.00
13015;BME280;6573;57.696;11.950;2024-02-26T20:59:50;101529.66;;;7.33;100.00
13015;BME280;6573;57.696;11.950;2024-02-26T21:02:19;101645.47;;;8.02;100.00